sensor_id;sensor_type;location;lat;lon;timestamp;P1;durP1;ratioP1;P2;durP2;ratioP2
2888;SDS011;1453;42.708;23.282;2022-11-15T00:00:51;124.32;;;60.35;;
2888;SDS011;1453;42.708;23.282;2022-11-15T00:03:18;116.68;;;51.20;;
2888;SDS011;1453;42.708;23.282;2022-11-15T00:05:53;97.70;;;47.15;;
2888;SDS011;1453;42.708;23.282;2022-11-15T00:08:19;103.68;;;52.20;;
2888;SDS011;1453;42.708;23.282;2022-11-15T00:10:55;101.93;;;49.93;;
2888;SDS011;1453;42.708;23.282;2022-11-15T00:13:25;94.45;;;48.40;;
2888;SDS011;1453;42.708;23.282;2022-11-15T00:15:51;109.63;;;52.28;;
2888;SDS011;1453;42.708;23.282;2022-11-15T00:18:17;115.90;;;52.30;;
2888;SDS011;1453;42.708;23.282;2022-11-15T00:20:44;105.65;;;51.00;;
2888;SDS011;1453;42.708;23.282;2022-11-15T00:23:10;91.72;;;47.75;;
2888;SDS011;1453;42.708;23.282;2022-11-15T00:25:36;93.47;;;45.88;;
2888;SDS011;1453;42.708;23.282;2022-11-15T00:28:01;256.00;;;138.07;;
2888;SDS011;1453;42.708;23.282;2022-11-15T00:30:28;271.58;;;146.57;;
2888;SDS011;1453;42.708;23.282;2022-11-15T00:32:54;326.00;;;169.70;;
2888;SDS011;1453;42.708;23.282;2022-11-15T00:35:20;360.70;;;188.77;;
2888;SDS011;1453;42.708;23.282;2022-11-15T00:37:46;382.88;;;191.95;;
2888;SDS011;1453;42.708;23.282;2022-11-15T00:40:12;392.17;;;217.20;;
2888;SDS011;1453;42.708;23.282;2022-11-15T00:42:39;413.15;;;229.52;;
2888;SDS011;1453;42.708;23.282;2022-11-15T00:45:06;377.60;;;206.32;;
2888;SDS011;1453;42.708;23.282;2022-11-15T00:47:32;467.73;;;270.50;;
2888;SDS011;1453;42.708;23.282;2022-11-15T00:49:58;436.23;;;250.73;;
2888;SDS011;1453;42.708;23.282;2022-11-15T00:52:24;363.63;;;196.77;;
2888;SDS011;1453;42.708;23.282;2022-11-15T00:54:50;396.40;;;222.40;;
2888;SDS011;1453;42.708;23.282;2022-11-15T00:57:16;333.23;;;178.90;;
2888;SDS011;1453;42.708;23.282;2022-11-15T00:59:41;393.60;;;223.33;;
2888;SDS011;1453;42.708;23.282;2022-11-15T01:02:07;413.53;;;231.03;;
2888;SDS011;1453;42.708;23.282;2022-11-15T01:04:33;388.67;;;215.60;;
2888;SDS011;1453;42.708;23.282;2022-11-15T01:06:59;366.53;;;200.77;;
2888;SDS011;1453;42.708;23.282;2022-11-15T01:09:24;291.63;;;157.07;;
2888;SDS011;1453;42.708;23.282;2022-11-15T01:11:50;211.97;;;113.07;;
2888;SDS011;1453;42.708;23.282;2022-11-15T01:14:16;239.35;;;121.63;;
2888;SDS011;1453;42.708;23.282;2022-11-15T01:16:42;193.07;;;101.00;;
2888;SDS011;1453;42.708;23.282;2022-11-15T01:19:08;209.30;;;112.30;;
2888;SDS011;1453;42.708;23.282;2022-11-15T01:21:34;163.60;;;77.60;;
2888;SDS011;1453;42.708;23.282;2022-11-15T01:24:00;124.27;;;61.10;;
2888;SDS011;1453;42.708;23.282;2022-11-15T01:26:25;122.63;;;57.60;;
2888;SDS011;1453;42.708;23.282;2022-11-15T01:28:52;133.48;;;58.10;;
2888;SDS011;1453;42.708;23.282;2022-11-15T01:31:18;116.43;;;53.67;;
2888;SDS011;1453;42.708;23.282;2022-11-15T01:33:46;108.60;;;51.75;;
2888;SDS011;1453;42.708;23.282;2022-11-15T01:36:17;104.45;;;49.05;;
2888;SDS011;1453;42.708;23.282;2022-11-15T01:38:57;90.05;;;46.00;;
2888;SDS011;1453;42.708;23.282;2022-11-15T01:41:25;92.88;;;45.95;;
2888;SDS011;1453;42.708;23.282;2022-11-15T01:44:25;94.65;;;42.50;;
2888;SDS011;1453;42.708;23.282;2022-11-15T01:46:59;102.43;;;45.15;;
2888;SDS011;1453;42.708;23.282;2022-11-15T01:49:35;85.82;;;40.90;;
2888;SDS011;1453;42.708;23.282;2022-11-15T01:52:05;86.75;;;41.47;;
2888;SDS011;1453;42.708;23.282;2022-11-15T01:54:38;83.10;;;42.60;;
2888;SDS011;1453;42.708;23.282;2022-11-15T01:57:06;102.93;;;44.80;;
2888;SDS011;1453;42.708;23.282;2022-11-15T01:59:35;83.63;;;40.90;;
2888;SDS011;1453;42.708;23.282;2022-11-15T02:02:03;97.10;;;43.75;;
2888;SDS011;1453;42.708;23.282;2022-11-15T02:04:31;81.83;;;42.87;;
2888;SDS011;1453;42.708;23.282;2022-11-15T02:07:01;83.40;;;42.38;;
2888;SDS011;1453;42.708;23.282;2022-11-15T02:09:29;74.93;;;41.00;;
2888;SDS011;1453;42.708;23.282;2022-11-15T02:11:55;86.20;;;43.20;;
2888;SDS011;1453;42.708;23.282;2022-11-15T02:14:22;73.30;;;40.47;;
2888;SDS011;1453;42.708;23.282;2022-11-15T02:19:49;79.28;;;38.33;;
2888;SDS011;1453;42.708;23.282;2022-11-15T02:37:16;83.05;;;40.28;;
2888;SDS011;1453;42.708;23.282;2022-11-15T02:40:35;83.45;;;40.70;;
2888;SDS011;1453;42.708;23.282;2022-11-15T02:43:10;93.32;;;42.00;;
2888;SDS011;1453;42.708;23.282;2022-11-15T02:46:06;78.25;;;39.85;;
2888;SDS011;1453;42.708;23.282;2022-11-15T02:48:45;85.18;;;41.92;;
2888;SDS011;1453;42.708;23.282;2022-11-15T02:51:11;80.85;;;40.38;;
2888;SDS011;1453;42.708;23.282;2022-11-15T02:53:38;85.97;;;43.88;;
2888;SDS011;1453;42.708;23.282;2022-11-15T02:56:04;82.00;;;41.17;;
2888;SDS011;1453;42.708;23.282;2022-11-15T02:58:48;93.20;;;41.92;;
2888;SDS011;1453;42.708;23.282;2022-11-15T03:10:08;89.93;;;41.63;;
2888;SDS011;1453;42.708;23.282;2022-11-15T03:16:16;85.80;;;41.17;;
2888;SDS011;1453;42.708;23.282;2022-11-15T03:19:37;81.30;;;39.70;;
2888;SDS011;1453;42.708;23.282;2022-11-15T03:22:11;79.28;;;41.60;;
2888;SDS011;1453;42.708;23.282;2022-11-15T03:24:42;81.60;;;40.13;;
2888;SDS011;1453;42.708;23.282;2022-11-15T03:27:12;88.22;;;43.00;;
2888;SDS011;1453;42.708;23.282;2022-11-15T03:29:44;98.40;;;42.85;;
2888;SDS011;1453;42.708;23.282;2022-11-15T03:32:18;97.00;;;45.15;;
2888;SDS011;1453;42.708;23.282;2022-11-15T03:34:50;91.22;;;42.55;;
2888;SDS011;1453;42.708;23.282;2022-11-15T03:37:31;105.15;;;45.10;;
2888;SDS011;1453;42.708;23.282;2022-11-15T03:40:26;93.78;;;41.80;;
2888;SDS011;1453;42.708;23.282;2022-11-15T03:46:13;88.65;;;42.90;;
2888;SDS011;1453;42.708;23.282;2022-11-15T03:48:47;96.25;;;44.58;;
2888;SDS011;1453;42.708;23.282;2022-11-15T03:51:18;110.07;;;45.22;;
2888;SDS011;1453;42.708;23.282;2022-11-15T03:53:45;99.57;;;40.88;;
2888;SDS011;1453;42.708;23.282;2022-11-15T03:56:11;96.57;;;43.45;;
2888;SDS011;1453;42.708;23.282;2022-11-15T03:58:37;100.97;;;44.30;;
2888;SDS011;1453;42.708;23.282;2022-11-15T04:01:02;103.53;;;44.57;;
2888;SDS011;1453;42.708;23.282;2022-11-15T04:03:28;142.93;;;46.40;;
2888;SDS011;1453;42.708;23.282;2022-11-15T04:05:54;169.53;;;48.87;;
2888;SDS011;1453;42.708;23.282;2022-11-15T04:08:20;150.77;;;44.00;;
2888;SDS011;1453;42.708;23.282;2022-11-15T04:10:48;266.40;;;51.30;;
2888;SDS011;1453;42.708;23.282;2022-11-15T04:13:14;163.80;;;46.28;;
2888;SDS011;1453;42.708;23.282;2022-11-15T04:15:40;185.03;;;46.33;;
2888;SDS011;1453;42.708;23.282;2022-11-15T04:18:06;272.53;;;53.97;;
2888;SDS011;1453;42.708;23.282;2022-11-15T04:20:32;265.93;;;49.47;;
2888;SDS011;1453;42.708;23.282;2022-11-15T04:23:20;704.28;;;83.15;;
2888;SDS011;1453;42.708;23.282;2022-11-15T04:26:08;189.48;;;53.65;;
2888;SDS011;1453;42.708;23.282;2022-11-15T04:28:38;216.88;;;55.28;;
2888;SDS011;1453;42.708;23.282;2022-11-15T04:31:22;211.82;;;55.85;;
2888;SDS011;1453;42.708;23.282;2022-11-15T04:33:48;269.20;;;57.43;;
2888;SDS011;1453;42.708;23.282;2022-11-15T04:36:14;221.93;;;54.67;;
2888;SDS011;1453;42.708;23.282;2022-11-15T04:38:58;173.90;;;51.20;;
2888;SDS011;1453;42.708;23.282;2022-11-15T04:41:24;203.30;;;63.77;;
2888;SDS011;1453;42.708;23.282;2022-11-15T04:43:50;156.47;;;56.37;;
2888;SDS011;1453;42.708;23.282;2022-11-15T04:46:16;268.20;;;68.60;;
2888;SDS011;1453;42.708;23.282;2022-11-15T04:48:42;266.35;;;58.33;;
2888;SDS011;1453;42.708;23.282;2022-11-15T04:51:08;269.97;;;59.23;;
2888;SDS011;1453;42.708;23.282;2022-11-15T04:53:34;191.00;;;61.30;;
2888;SDS011;1453;42.708;23.282;2022-11-15T04:55:59;299.20;;;65.07;;
2888;SDS011;1453;42.708;23.282;2022-11-15T04:58:25;466.43;;;86.27;;
2888;SDS011;1453;42.708;23.282;2022-11-15T05:00:51;263.93;;;62.37;;
2888;SDS011;1453;42.708;23.282;2022-11-15T05:03:17;669.63;;;98.87;;
2888;SDS011;1453;42.708;23.282;2022-11-15T05:06:01;202.50;;;57.03;;
2888;SDS011;1453;42.708;23.282;2022-11-15T05:08:27;301.97;;;60.47;;
2888;SDS011;1453;42.708;23.282;2022-11-15T05:10:52;461.63;;;84.53;;
2888;SDS011;1453;42.708;23.282;2022-11-15T05:13:18;225.93;;;66.33;;
2888;SDS011;1453;42.708;23.282;2022-11-15T05:15:44;294.33;;;74.40;;
2888;SDS011;1453;42.708;23.282;2022-11-15T05:18:10;279.67;;;69.50;;
2888;SDS011;1453;42.708;23.282;2022-11-15T05:20:36;297.40;;;73.90;;
2888;SDS011;1453;42.708;23.282;2022-11-15T05:23:02;256.90;;;69.50;;
2888;SDS011;1453;42.708;23.282;2022-11-15T05:25:28;399.93;;;81.97;;
2888;SDS011;1453;42.708;23.282;2022-11-15T05:27:54;213.10;;;60.57;;
2888;SDS011;1453;42.708;23.282;2022-11-15T05:30:20;176.60;;;55.83;;
2888;SDS011;1453;42.708;23.282;2022-11-15T05:32:46;218.40;;;57.37;;
2888;SDS011;1453;42.708;23.282;2022-11-15T05:35:13;142.88;;;50.63;;
2888;SDS011;1453;42.708;23.282;2022-11-15T05:37:53;130.05;;;45.55;;
2888;SDS011;1453;42.708;23.282;2022-11-15T05:40:19;187.50;;;50.60;;
2888;SDS011;1453;42.708;23.282;2022-11-15T05:42:45;237.90;;;53.30;;
2888;SDS011;1453;42.708;23.282;2022-11-15T05:45:11;217.98;;;50.88;;
2888;SDS011;1453;42.708;23.282;2022-11-15T05:47:37;147.93;;;43.67;;
2888;SDS011;1453;42.708;23.282;2022-11-15T05:50:04;123.30;;;46.28;;
2888;SDS011;1453;42.708;23.282;2022-11-15T05:52:31;155.13;;;48.10;;
2888;SDS011;1453;42.708;23.282;2022-11-15T05:55:01;288.35;;;56.78;;
2888;SDS011;1453;42.708;23.282;2022-11-15T05:57:29;229.23;;;56.05;;
2888;SDS011;1453;42.708;23.282;2022-11-15T05:59:55;164.63;;;50.77;;
2888;SDS011;1453;42.708;23.282;2022-11-15T06:02:21;183.47;;;51.70;;
2888;SDS011;1453;42.708;23.282;2022-11-15T06:04:47;138.63;;;49.70;;
2888;SDS011;1453;42.708;23.282;2022-11-15T06:07:13;289.73;;;64.07;;
2888;SDS011;1453;42.708;23.282;2022-11-15T06:09:38;162.10;;;50.97;;
2888;SDS011;1453;42.708;23.282;2022-11-15T06:12:04;287.90;;;65.93;;
2888;SDS011;1453;42.708;23.282;2022-11-15T06:14:30;181.43;;;51.95;;
2888;SDS011;1453;42.708;23.282;2022-11-15T06:16:56;215.40;;;54.27;;
2888;SDS011;1453;42.708;23.282;2022-11-15T06:19:22;217.93;;;55.07;;
2888;SDS011;1453;42.708;23.282;2022-11-15T06:21:48;358.77;;;74.00;;
2888;SDS011;1453;42.708;23.282;2022-11-15T06:24:14;204.13;;;58.67;;
2888;SDS011;1453;42.708;23.282;2022-11-15T06:26:39;208.27;;;55.17;;
2888;SDS011;1453;42.708;23.282;2022-11-15T06:29:05;243.00;;;64.30;;
2888;SDS011;1453;42.708;23.282;2022-11-15T06:31:31;162.40;;;55.20;;
2888;SDS011;1453;42.708;23.282;2022-11-15T06:33:58;185.93;;;55.67;;
2888;SDS011;1453;42.708;23.282;2022-11-15T06:36:24;188.97;;;55.70;;
2888;SDS011;1453;42.708;23.282;2022-11-15T06:38:50;208.00;;;57.30;;
2888;SDS011;1453;42.708;23.282;2022-11-15T06:41:15;412.03;;;80.67;;
2888;SDS011;1453;42.708;23.282;2022-11-15T06:43:42;223.63;;;60.38;;
2888;SDS011;1453;42.708;23.282;2022-11-15T06:46:08;285.13;;;62.70;;
2888;SDS011;1453;42.708;23.282;2022-11-15T06:48:34;205.68;;;59.72;;
2888;SDS011;1453;42.708;23.282;2022-11-15T06:51:02;271.65;;;67.35;;
2888;SDS011;1453;42.708;23.282;2022-11-15T06:53:29;384.75;;;86.22;;
2888;SDS011;1453;42.708;23.282;2022-11-15T06:56:03;199.88;;;64.68;;
2888;SDS011;1453;42.708;23.282;2022-11-15T06:58:31;269.42;;;81.82;;
2888;SDS011;1453;42.708;23.282;2022-11-15T07:00:58;238.82;;;72.22;;
2888;SDS011;1453;42.708;23.282;2022-11-15T07:03:36;229.27;;;68.38;;
2888;SDS011;1453;42.708;23.282;2022-11-15T07:06:05;240.23;;;75.35;;
2888;SDS011;1453;42.708;23.282;2022-11-15T07:08:31;232.65;;;65.55;;
2888;SDS011;1453;42.708;23.282;2022-11-15T07:10:58;233.27;;;65.60;;
2888;SDS011;1453;42.708;23.282;2022-11-15T07:13:27;203.63;;;58.13;;
2888;SDS011;1453;42.708;23.282;2022-11-15T07:15:55;131.70;;;49.83;;
2888;SDS011;1453;42.708;23.282;2022-11-15T07:18:21;244.73;;;62.33;;
2888;SDS011;1453;42.708;23.282;2022-11-15T07:20:46;149.37;;;51.30;;
2888;SDS011;1453;42.708;23.282;2022-11-15T07:23:12;319.33;;;65.23;;
2888;SDS011;1453;42.708;23.282;2022-11-15T07:25:38;174.93;;;53.63;;
2888;SDS011;1453;42.708;23.282;2022-11-15T07:28:04;179.30;;;58.87;;
2888;SDS011;1453;42.708;23.282;2022-11-15T07:30:29;133.57;;;51.13;;
2888;SDS011;1453;42.708;23.282;2022-11-15T07:32:56;194.90;;;56.20;;
2888;SDS011;1453;42.708;23.282;2022-11-15T07:35:24;155.88;;;54.90;;
2888;SDS011;1453;42.708;23.282;2022-11-15T07:37:56;173.15;;;56.38;;
2888;SDS011;1453;42.708;23.282;2022-11-15T07:40:27;186.23;;;61.65;;
2888;SDS011;1453;42.708;23.282;2022-11-15T07:43:01;191.88;;;58.53;;
2888;SDS011;1453;42.708;23.282;2022-11-15T07:45:29;147.90;;;56.13;;
2888;SDS011;1453;42.708;23.282;2022-11-15T07:47:55;162.70;;;59.63;;
2888;SDS011;1453;42.708;23.282;2022-11-15T07:50:22;144.98;;;55.10;;
2888;SDS011;1453;42.708;23.282;2022-11-15T07:52:55;157.77;;;62.63;;
2888;SDS011;1453;42.708;23.282;2022-11-15T07:55:24;187.63;;;61.80;;
2888;SDS011;1453;42.708;23.282;2022-11-15T07:57:52;149.93;;;58.92;;
2888;SDS011;1453;42.708;23.282;2022-11-15T08:00:18;171.70;;;60.65;;
2888;SDS011;1453;42.708;23.282;2022-11-15T08:02:45;174.45;;;63.85;;
2888;SDS011;1453;42.708;23.282;2022-11-15T08:05:11;175.07;;;59.53;;
2888;SDS011;1453;42.708;23.282;2022-11-15T08:07:36;170.40;;;61.65;;
2888;SDS011;1453;42.708;23.282;2022-11-15T08:10:03;158.38;;;58.28;;
2888;SDS011;1453;42.708;23.282;2022-11-15T08:12:32;166.02;;;60.08;;
2888;SDS011;1453;42.708;23.282;2022-11-15T08:14:57;153.97;;;55.93;;
2888;SDS011;1453;42.708;23.282;2022-11-15T08:17:23;162.53;;;60.30;;
2888;SDS011;1453;42.708;23.282;2022-11-15T08:19:50;159.95;;;57.20;;
2888;SDS011;1453;42.708;23.282;2022-11-15T08:22:16;146.80;;;55.37;;
2888;SDS011;1453;42.708;23.282;2022-11-15T08:24:43;150.43;;;53.63;;
2888;SDS011;1453;42.708;23.282;2022-11-15T08:27:09;139.95;;;52.33;;
2888;SDS011;1453;42.708;23.282;2022-11-15T08:29:45;150.15;;;55.50;;
2888;SDS011;1453;42.708;23.282;2022-11-15T08:32:13;142.10;;;53.08;;
2888;SDS011;1453;42.708;23.282;2022-11-15T08:34:39;136.67;;;51.20;;
2888;SDS011;1453;42.708;23.282;2022-11-15T08:37:05;138.47;;;53.23;;
2888;SDS011;1453;42.708;23.282;2022-11-15T08:39:31;111.60;;;47.20;;
2888;SDS011;1453;42.708;23.282;2022-11-15T08:41:57;124.37;;;49.27;;
2888;SDS011;1453;42.708;23.282;2022-11-15T08:44:23;133.48;;;51.60;;
2888;SDS011;1453;42.708;23.282;2022-11-15T08:46:49;141.63;;;51.37;;
2888;SDS011;1453;42.708;23.282;2022-11-15T08:49:15;125.95;;;52.13;;
2888;SDS011;1453;42.708;23.282;2022-11-15T08:51:41;150.30;;;56.72;;
2888;SDS011;1453;42.708;23.282;2022-11-15T08:54:07;145.93;;;56.67;;
2888;SDS011;1453;42.708;23.282;2022-11-15T08:56:33;131.53;;;52.40;;
2888;SDS011;1453;42.708;23.282;2022-11-15T08:58:59;148.47;;;58.50;;
2888;SDS011;1453;42.708;23.282;2022-11-15T09:01:24;143.57;;;56.67;;
2888;SDS011;1453;42.708;23.282;2022-11-15T09:03:50;134.07;;;54.30;;
2888;SDS011;1453;42.708;23.282;2022-11-15T09:06:16;135.50;;;57.23;;
2888;SDS011;1453;42.708;23.282;2022-11-15T09:08:42;146.57;;;63.33;;
2888;SDS011;1453;42.708;23.282;2022-11-15T09:11:09;141.70;;;59.90;;
2888;SDS011;1453;42.708;23.282;2022-11-15T09:13:36;154.80;;;63.13;;
2888;SDS011;1453;42.708;23.282;2022-11-15T09:16:02;142.80;;;62.35;;
2888;SDS011;1453;42.708;23.282;2022-11-15T09:18:29;148.15;;;59.75;;
2888;SDS011;1453;42.708;23.282;2022-11-15T09:20:56;157.70;;;62.80;;
2888;SDS011;1453;42.708;23.282;2022-11-15T09:23:23;146.13;;;57.83;;
2888;SDS011;1453;42.708;23.282;2022-11-15T09:25:49;154.18;;;59.90;;
2888;SDS011;1453;42.708;23.282;2022-11-15T09:28:15;134.70;;;58.83;;
2888;SDS011;1453;42.708;23.282;2022-11-15T09:30:41;134.53;;;60.77;;
2888;SDS011;1453;42.708;23.282;2022-11-15T09:33:07;145.77;;;61.67;;
2888;SDS011;1453;42.708;23.282;2022-11-15T09:35:35;130.82;;;56.97;;
2888;SDS011;1453;42.708;23.282;2022-11-15T09:38:01;148.10;;;61.28;;
2888;SDS011;1453;42.708;23.282;2022-11-15T09:40:29;140.90;;;59.00;;
2888;SDS011;1453;42.708;23.282;2022-11-15T09:46:09;132.15;;;56.45;;
2888;SDS011;1453;42.708;23.282;2022-11-15T09:51:26;112.28;;;53.63;;
2888;SDS011;1453;42.708;23.282;2022-11-15T09:54:03;121.63;;;53.70;;
2888;SDS011;1453;42.708;23.282;2022-11-15T09:56:36;119.03;;;58.00;;
2888;SDS011;1453;42.708;23.282;2022-11-15T09:59:19;116.45;;;55.47;;
2888;SDS011;1453;42.708;23.282;2022-11-15T10:05:04;101.07;;;50.38;;
2888;SDS011;1453;42.708;23.282;2022-11-15T10:10:45;87.53;;;45.43;;
2888;SDS011;1453;42.708;23.282;2022-11-15T10:13:28;82.03;;;46.00;;
2888;SDS011;1453;42.708;23.282;2022-11-15T10:16:04;78.70;;;47.00;;
2888;SDS011;1453;42.708;23.282;2022-11-15T10:24:43;75.73;;;46.53;;
2888;SDS011;1453;42.708;23.282;2022-11-15T10:27:11;80.50;;;48.60;;
2888;SDS011;1453;42.708;23.282;2022-11-15T10:29:45;77.70;;;47.27;;
2888;SDS011;1453;42.708;23.282;2022-11-15T10:32:13;78.70;;;47.97;;
2888;SDS011;1453;42.708;23.282;2022-11-15T10:34:44;85.00;;;50.80;;
2888;SDS011;1453;42.708;23.282;2022-11-15T10:37:11;88.03;;;52.03;;
2888;SDS011;1453;42.708;23.282;2022-11-15T10:39:36;87.57;;;51.50;;
2888;SDS011;1453;42.708;23.282;2022-11-15T10:42:16;74.47;;;47.47;;
2888;SDS011;1453;42.708;23.282;2022-11-15T10:44:53;74.50;;;48.20;;
2888;SDS011;1453;42.708;23.282;2022-11-15T10:47:21;75.83;;;47.60;;
2888;SDS011;1453;42.708;23.282;2022-11-15T10:50:04;76.20;;;47.27;;
2888;SDS011;1453;42.708;23.282;2022-11-15T10:52:52;74.77;;;47.00;;
2888;SDS011;1453;42.708;23.282;2022-11-15T10:57:51;74.30;;;49.40;;
2888;SDS011;1453;42.708;23.282;2022-11-15T11:07:59;73.03;;;49.63;;
2888;SDS011;1453;42.708;23.282;2022-11-15T11:10:29;72.20;;;48.50;;
2888;SDS011;1453;42.708;23.282;2022-11-15T11:13:04;78.30;;;50.87;;
2888;SDS011;1453;42.708;23.282;2022-11-15T11:15:49;81.83;;;51.80;;
2888;SDS011;1453;42.708;23.282;2022-11-15T11:18:34;78.27;;;51.37;;
2888;SDS011;1453;42.708;23.282;2022-11-15T11:30:10;83.73;;;55.07;;
2888;SDS011;1453;42.708;23.282;2022-11-15T11:47:21;87.00;;;56.03;;
2888;SDS011;1453;42.708;23.282;2022-11-15T11:49:59;87.70;;;57.10;;
2888;SDS011;1453;42.708;23.282;2022-11-15T12:00:55;81.77;;;55.93;;
2888;SDS011;1453;42.708;23.282;2022-11-15T12:03:47;82.73;;;54.97;;
2888;SDS011;1453;42.708;23.282;2022-11-15T12:06:30;83.67;;;56.63;;
2888;SDS011;1453;42.708;23.282;2022-11-15T12:09:33;86.00;;;59.03;;
2888;SDS011;1453;42.708;23.282;2022-11-15T12:12:15;83.63;;;54.03;;
2888;SDS011;1453;42.708;23.282;2022-11-15T12:15:09;86.50;;;54.57;;
2888;SDS011;1453;42.708;23.282;2022-11-15T12:18:00;79.83;;;54.10;;
2888;SDS011;1453;42.708;23.282;2022-11-15T12:20:28;85.60;;;54.30;;
2888;SDS011;1453;42.708;23.282;2022-11-15T12:23:07;86.77;;;57.60;;
2888;SDS011;1453;42.708;23.282;2022-11-15T12:25:46;83.20;;;55.43;;
2888;SDS011;1453;42.708;23.282;2022-11-15T12:33:45;85.97;;;54.77;;
2888;SDS011;1453;42.708;23.282;2022-11-15T12:41:21;94.00;;;60.10;;
2888;SDS011;1453;42.708;23.282;2022-11-15T12:43:53;88.77;;;59.00;;
2888;SDS011;1453;42.708;23.282;2022-11-15T12:48:56;88.27;;;59.83;;
2888;SDS011;1453;42.708;23.282;2022-11-15T12:59:49;106.13;;;64.57;;
2888;SDS011;1453;42.708;23.282;2022-11-15T13:16:06;90.67;;;56.83;;
2888;SDS011;1453;42.708;23.282;2022-11-15T13:18:36;74.43;;;51.00;;
2888;SDS011;1453;42.708;23.282;2022-11-15T13:21:17;79.67;;;52.57;;
2888;SDS011;1453;42.708;23.282;2022-11-15T13:24:10;78.47;;;52.27;;
2888;SDS011;1453;42.708;23.282;2022-11-15T13:26:41;75.83;;;52.00;;
2888;SDS011;1453;42.708;23.282;2022-11-15T13:29:17;91.13;;;56.50;;
2888;SDS011;1453;42.708;23.282;2022-11-15T13:31:45;79.77;;;53.03;;
2888;SDS011;1453;42.708;23.282;2022-11-15T13:34:16;75.70;;;51.33;;
2888;SDS011;1453;42.708;23.282;2022-11-15T13:36:58;82.63;;;52.47;;
2888;SDS011;1453;42.708;23.282;2022-11-15T13:39:31;81.77;;;54.80;;
2888;SDS011;1453;42.708;23.282;2022-11-15T13:41:59;79.13;;;51.43;;
2888;SDS011;1453;42.708;23.282;2022-11-15T13:44:26;84.53;;;54.00;;
2888;SDS011;1453;42.708;23.282;2022-11-15T13:47:00;85.60;;;54.30;;
2888;SDS011;1453;42.708;23.282;2022-11-15T13:49:28;81.47;;;50.97;;
2888;SDS011;1453;42.708;23.282;2022-11-15T13:51:56;85.60;;;52.53;;
2888;SDS011;1453;42.708;23.282;2022-11-15T13:57:13;84.77;;;49.70;;
2888;SDS011;1453;42.708;23.282;2022-11-15T13:59:50;88.13;;;51.37;;
2888;SDS011;1453;42.708;23.282;2022-11-15T14:02:26;83.93;;;50.47;;
2888;SDS011;1453;42.708;23.282;2022-11-15T14:04:59;88.43;;;52.90;;
2888;SDS011;1453;42.708;23.282;2022-11-15T14:07:40;89.80;;;50.90;;
2888;SDS011;1453;42.708;23.282;2022-11-15T14:10:40;86.90;;;48.80;;
2888;SDS011;1453;42.708;23.282;2022-11-15T14:13:28;83.60;;;52.10;;
2888;SDS011;1453;42.708;23.282;2022-11-15T14:15:55;90.07;;;52.23;;
2888;SDS011;1453;42.708;23.282;2022-11-15T14:21:14;96.13;;;52.57;;
2888;SDS011;1453;42.708;23.282;2022-11-15T14:23:41;80.90;;;48.27;;
2888;SDS011;1453;42.708;23.282;2022-11-15T14:26:11;86.17;;;49.30;;
2888;SDS011;1453;42.708;23.282;2022-11-15T14:32:16;84.50;;;45.50;;
2888;SDS011;1453;42.708;23.282;2022-11-15T14:34:43;84.60;;;48.63;;
2888;SDS011;1453;42.708;23.282;2022-11-15T14:37:16;96.80;;;49.27;;
2888;SDS011;1453;42.708;23.282;2022-11-15T14:39:45;83.00;;;48.43;;
2888;SDS011;1453;42.708;23.282;2022-11-15T14:42:11;98.30;;;51.07;;
2888;SDS011;1453;42.708;23.282;2022-11-15T14:44:37;80.77;;;45.60;;
2888;SDS011;1453;42.708;23.282;2022-11-15T14:47:03;76.37;;;43.83;;
2888;SDS011;1453;42.708;23.282;2022-11-15T14:49:28;80.83;;;43.90;;
2888;SDS011;1453;42.708;23.282;2022-11-15T14:51:54;92.33;;;46.90;;
2888;SDS011;1453;42.708;23.282;2022-11-15T14:54:20;83.43;;;44.50;;
2888;SDS011;1453;42.708;23.282;2022-11-15T14:56:46;82.30;;;45.07;;
2888;SDS011;1453;42.708;23.282;2022-11-15T14:59:11;81.63;;;42.63;;
2888;SDS011;1453;42.708;23.282;2022-11-15T15:01:37;95.10;;;45.50;;
2888;SDS011;1453;42.708;23.282;2022-11-15T15:04:03;85.00;;;44.00;;
2888;SDS011;1453;42.708;23.282;2022-11-15T15:06:29;82.50;;;43.37;;
2888;SDS011;1453;42.708;23.282;2022-11-15T15:08:55;89.50;;;44.78;;
2888;SDS011;1453;42.708;23.282;2022-11-15T15:11:26;91.00;;;46.53;;
2888;SDS011;1453;42.708;23.282;2022-11-15T15:13:56;90.50;;;46.15;;
2888;SDS011;1453;42.708;23.282;2022-11-15T15:16:25;92.13;;;48.42;;
2888;SDS011;1453;42.708;23.282;2022-11-15T15:18:52;95.28;;;47.30;;
2888;SDS011;1453;42.708;23.282;2022-11-15T15:21:22;117.38;;;49.90;;
2888;SDS011;1453;42.708;23.282;2022-11-15T15:23:51;105.03;;;46.72;;
2888;SDS011;1453;42.708;23.282;2022-11-15T15:26:19;93.22;;;47.45;;
2888;SDS011;1453;42.708;23.282;2022-11-15T15:28:45;89.55;;;46.85;;
2888;SDS011;1453;42.708;23.282;2022-11-15T15:31:13;92.00;;;49.40;;
2888;SDS011;1453;42.708;23.282;2022-11-15T15:33:40;101.15;;;48.88;;
2888;SDS011;1453;42.708;23.282;2022-11-15T15:36:09;98.03;;;47.95;;
2888;SDS011;1453;42.708;23.282;2022-11-15T15:38:37;95.22;;;47.50;;
2888;SDS011;1453;42.708;23.282;2022-11-15T15:41:08;92.43;;;47.78;;
2888;SDS011;1453;42.708;23.282;2022-11-15T15:43:35;121.35;;;59.50;;
2888;SDS011;1453;42.708;23.282;2022-11-15T15:46:01;113.60;;;54.50;;
2888;SDS011;1453;42.708;23.282;2022-11-15T15:48:27;108.80;;;52.37;;
2888;SDS011;1453;42.708;23.282;2022-11-15T15:50:53;108.93;;;56.97;;
2888;SDS011;1453;42.708;23.282;2022-11-15T15:53:19;128.97;;;62.27;;
2888;SDS011;1453;42.708;23.282;2022-11-15T15:55:45;125.90;;;63.80;;
2888;SDS011;1453;42.708;23.282;2022-11-15T15:58:10;144.47;;;76.63;;
2888;SDS011;1453;42.708;23.282;2022-11-15T16:00:37;130.32;;;65.10;;
2888;SDS011;1453;42.708;23.282;2022-11-15T16:03:03;118.60;;;58.80;;
2888;SDS011;1453;42.708;23.282;2022-11-15T16:05:29;105.30;;;55.07;;
2888;SDS011;1453;42.708;23.282;2022-11-15T16:07:55;138.50;;;66.07;;
2888;SDS011;1453;42.708;23.282;2022-11-15T16:12:55;125.45;;;68.43;;
2888;SDS011;1453;42.708;23.282;2022-11-15T16:15:22;118.50;;;62.30;;
2888;SDS011;1453;42.708;23.282;2022-11-15T16:17:52;136.45;;;66.28;;
2888;SDS011;1453;42.708;23.282;2022-11-15T16:20:42;134.43;;;68.10;;
2888;SDS011;1453;42.708;23.282;2022-11-15T16:23:16;130.70;;;62.85;;
2888;SDS011;1453;42.708;23.282;2022-11-15T16:28:21;150.52;;;71.70;;
2888;SDS011;1453;42.708;23.282;2022-11-15T16:31:02;144.68;;;73.30;;
2888;SDS011;1453;42.708;23.282;2022-11-15T16:33:34;153.88;;;76.07;;
2888;SDS011;1453;42.708;23.282;2022-11-15T16:36:01;155.50;;;74.63;;
2888;SDS011;1453;42.708;23.282;2022-11-15T16:38:29;140.38;;;74.25;;
2888;SDS011;1453;42.708;23.282;2022-11-15T16:40:55;152.77;;;74.95;;
2888;SDS011;1453;42.708;23.282;2022-11-15T16:43:21;151.70;;;73.20;;
2888;SDS011;1453;42.708;23.282;2022-11-15T16:45:47;226.57;;;126.68;;
2888;SDS011;1453;42.708;23.282;2022-11-15T16:48:25;145.75;;;71.55;;
2888;SDS011;1453;42.708;23.282;2022-11-15T16:50:56;138.20;;;66.00;;
2888;SDS011;1453;42.708;23.282;2022-11-15T16:53:23;137.30;;;64.80;;
2888;SDS011;1453;42.708;23.282;2022-11-15T16:55:53;159.20;;;75.68;;
2888;SDS011;1453;42.708;23.282;2022-11-15T16:58:20;142.95;;;69.63;;
2888;SDS011;1453;42.708;23.282;2022-11-15T17:00:49;144.23;;;70.95;;
2888;SDS011;1453;42.708;23.282;2022-11-15T17:03:20;155.05;;;68.18;;
2888;SDS011;1453;42.708;23.282;2022-11-15T17:05:47;120.38;;;56.15;;